createdAt,value
2023-03-17T00:01:55.013Z,87.23
2023-03-17T00:04:25.268Z,84.07
2023-03-17T00:06:54.021Z,83.11
2023-03-17T00:09:23.191Z,92.55
2023-03-17T00:11:51.783Z,86.17
2023-03-17T00:14:20.888Z,86.50
2023-03-17T00:16:51.115Z,81.09
2023-03-17T00:19:26.693Z,82.96
2023-03-17T00:21:55.083Z,84.15
2023-03-17T00:24:23.467Z,77.20
2023-03-17T00:26:51.746Z,79.21
2023-03-17T00:29:20.160Z,77.50
2023-03-17T00:31:49.505Z,75.18
2023-03-17T00:34:21.558Z,79.93
2023-03-17T00:36:52.045Z,81.72
2023-03-17T00:39:20.911Z,81.49
2023-03-17T00:41:49.247Z,73.88
2023-03-17T00:44:17.573Z,72.91
2023-03-17T00:46:46.658Z,73.19
2023-03-17T00:51:46.796Z,72.50
2023-03-17T00:54:15.725Z,80.71
2023-03-17T00:56:45.491Z,73.06
2023-03-17T00:59:21.894Z,73.06
2023-03-17T01:01:50.328Z,75.75
2023-03-17T01:04:19.699Z,73.34
2023-03-17T01:06:50.756Z,76.37
2023-03-17T01:09:20.495Z,76.78
2023-03-17T01:11:49.357Z,73.72
2023-03-17T01:14:18.197Z,74.04
2023-03-17T01:16:47.878Z,80.77
2023-03-17T01:19:17.197Z,78.67
2023-03-17T01:21:45.782Z,77.89
2023-03-17T01:24:15.788Z,78.25
2023-03-17T01:26:44.738Z,76.67
2023-03-17T01:29:14.032Z,73.50
2023-03-17T01:31:42.421Z,86.92
2023-03-17T01:34:11.712Z,78.79
2023-03-17T01:36:41.416Z,73.67
2023-03-17T01:39:09.639Z,73.80
2023-03-17T01:41:40.344Z,70.62
2023-03-17T01:44:10.937Z,70.56
2023-03-17T01:46:39.216Z,71.12
2023-03-17T01:49:13.480Z,70.71
2023-03-17T01:51:50.436Z,69.54
2023-03-17T01:54:24.353Z,81.55
2023-03-17T01:56:57.580Z,72.38
2023-03-17T01:59:30.053Z,70.92
2023-03-17T02:02:04.683Z,71.00
2023-03-17T02:04:34.209Z,74.98
2023-03-17T02:07:05.261Z,70.19
2023-03-17T02:09:35.015Z,68.52
2023-03-17T02:12:05.916Z,70.88
2023-03-17T02:14:34.288Z,70.28
2023-03-17T02:17:02.845Z,68.77
2023-03-17T02:19:31.276Z,70.96
2023-03-17T02:22:02.769Z,72.53
2023-03-17T02:24:35.979Z,73.74
2023-03-17T02:27:09.793Z,68.58
2023-03-17T02:29:38.140Z,69.16
2023-03-17T02:32:07.719Z,71.77
2023-03-17T02:34:36.115Z,69.87
2023-03-17T02:37:06.402Z,72.20
2023-03-17T02:39:34.840Z,69.96
2023-03-17T02:42:03.802Z,68.86
2023-03-17T02:44:32.224Z,70.07
2023-03-17T02:47:01.126Z,71.10
2023-03-17T02:49:30.756Z,70.87
2023-03-17T02:51:59.186Z,70.44
2023-03-17T02:54:29.041Z,70.15
2023-03-17T02:56:57.372Z,68.76
2023-03-17T02:59:25.925Z,69.31
2023-03-17T03:01:54.254Z,68.95
2023-03-17T03:04:22.516Z,82.03
2023-03-17T03:06:51.254Z,70.59
2023-03-17T03:09:19.567Z,70.80
2023-03-17T03:11:49.550Z,71.33
2023-03-17T03:14:17.784Z,69.42
2023-03-17T03:16:47.032Z,76.98
2023-03-17T03:19:15.247Z,72.65
2023-03-17T03:21:43.857Z,68.96
2023-03-17T03:24:12.206Z,69.88
2023-03-17T03:26:40.507Z,69.18
2023-03-17T03:29:10.563Z,69.45
2023-03-17T03:31:38.858Z,70.61
2023-03-17T03:34:07.398Z,68.65
2023-03-17T03:36:35.739Z,69.03
2023-03-17T03:39:04.040Z,69.75
2023-03-17T03:41:32.381Z,67.34
2023-03-17T03:44:00.638Z,68.62
2023-03-17T03:46:30.324Z,70.57
2023-03-17T03:48:58.641Z,67.72
2023-03-17T03:51:27.205Z,66.71
2023-03-17T03:53:55.527Z,65.62
2023-03-17T03:56:23.867Z,65.53
2023-03-17T03:58:52.563Z,67.39
2023-03-17T04:01:24.725Z,67.52
2023-03-17T04:03:54.442Z,66.80
2023-03-17T04:06:22.688Z,66.75
2023-03-17T04:08:50.993Z,66.52
2023-03-17T04:11:19.390Z,66.63
2023-03-17T04:13:47.779Z,66.62
2023-03-17T04:16:16.393Z,65.85
2023-03-17T04:18:44.827Z,68.39
2023-03-17T04:21:18.539Z,70.90
2023-03-17T04:23:47.432Z,66.56
2023-03-17T04:26:17.504Z,68.07
2023-03-17T04:28:46.139Z,66.94
2023-03-17T04:31:14.589Z,71.10
2023-03-17T04:33:43.302Z,80.42
2023-03-17T04:36:19.473Z,67.15
2023-03-17T04:38:47.835Z,66.79
2023-03-17T04:41:16.171Z,66.52
2023-03-17T04:43:44.483Z,67.45
2023-03-17T04:46:12.865Z,69.78
2023-03-17T04:48:41.543Z,68.44
2023-03-17T04:51:11.633Z,67.62
2023-03-17T04:53:41.594Z,68.42
2023-03-17T04:56:10.268Z,66.67
2023-03-17T04:58:38.761Z,72.37
2023-03-17T05:01:07.457Z,71.30
2023-03-17T05:03:36.576Z,67.61
2023-03-17T05:06:05.762Z,66.73
2023-03-17T05:08:34.156Z,66.50
2023-03-17T05:11:03.849Z,68.89
2023-03-17T05:13:32.391Z,69.74
2023-03-17T05:16:01.604Z,66.84
2023-03-17T05:18:30.262Z,69.09
2023-03-17T05:20:58.608Z,67.48
2023-03-17T05:23:27.796Z,70.71
2023-03-17T05:25:56.223Z,66.63
2023-03-17T05:28:26.846Z,65.03
2023-03-17T05:30:55.603Z,66.22
2023-03-17T05:33:24.431Z,66.76
2023-03-17T05:35:52.889Z,63.78
2023-03-17T05:38:21.294Z,64.87
2023-03-17T05:40:51.885Z,64.61
2023-03-17T05:43:20.469Z,63.37
2023-03-17T05:45:50.794Z,63.76
2023-03-17T05:48:19.912Z,61.65
2023-03-17T05:50:48.343Z,65.42
2023-03-17T05:53:17.567Z,61.17
2023-03-17T05:55:45.955Z,61.96
2023-03-17T05:58:15.852Z,63.43
2023-03-17T06:00:45.387Z,61.64
2023-03-17T06:03:15.419Z,61.76
2023-03-17T06:05:43.768Z,62.18
2023-03-17T06:08:12.299Z,60.46
2023-03-17T06:10:41.461Z,59.71
2023-03-17T06:13:09.813Z,58.57
2023-03-17T06:15:38.206Z,62.14
2023-03-17T06:18:06.771Z,60.59
2023-03-17T06:20:36.808Z,57.49
2023-03-17T06:23:05.812Z,61.72
2023-03-17T06:25:35.189Z,56.23
2023-03-17T06:28:04.204Z,56.10
2023-03-17T06:30:33.088Z,55.73
2023-03-17T06:33:02.197Z,54.85
2023-03-17T06:35:31.826Z,56.18
2023-03-17T06:38:02.460Z,53.40
2023-03-17T06:40:31.207Z,52.54
2023-03-17T06:42:59.810Z,52.95
2023-03-17T06:45:28.400Z,52.30
2023-03-17T06:47:57.187Z,50.99
2023-03-17T06:50:25.868Z,51.79
2023-03-17T06:52:54.450Z,52.05
2023-03-17T06:55:24.186Z,51.36
2023-03-17T06:57:52.628Z,52.14
2023-03-17T07:00:22.639Z,50.01
2023-03-17T07:02:51.367Z,49.21
2023-03-17T07:05:19.631Z,48.87
2023-03-17T07:07:47.937Z,48.56
2023-03-17T07:10:17.449Z,47.07
2023-03-17T07:12:47.200Z,58.22
2023-03-17T07:15:17.462Z,50.58
2023-03-17T07:17:46.904Z,48.19
2023-03-17T07:20:15.267Z,47.67
2023-03-17T07:22:43.683Z,47.83
2023-03-17T07:25:12.037Z,50.28
2023-03-17T07:27:40.481Z,49.94
2023-03-17T07:30:11.753Z,49.25
2023-03-17T07:32:41.854Z,49.74
2023-03-17T07:35:10.857Z,49.83
2023-03-17T07:37:39.285Z,54.28
2023-03-17T07:40:09.318Z,50.29
2023-03-17T07:42:37.758Z,60.45
2023-03-17T07:45:08.110Z,48.45
2023-03-17T07:47:37.819Z,48.91
2023-03-17T07:50:06.873Z,49.41
2023-03-17T07:52:35.667Z,47.55
2023-03-17T07:55:04.132Z,48.87
2023-03-17T07:57:32.802Z,51.84
2023-03-17T08:00:01.406Z,48.25
2023-03-17T08:02:30.025Z,48.25
2023-03-17T08:04:59.746Z,45.35
2023-03-17T08:07:28.083Z,43.72
2023-03-17T08:09:56.510Z,45.28
2023-03-17T08:12:24.809Z,40.48
2023-03-17T08:14:53.192Z,53.40
2023-03-17T08:17:21.595Z,41.87
2023-03-17T08:19:50.707Z,41.29
2023-03-17T08:22:20.588Z,40.30
2023-03-17T08:24:48.998Z,40.70
2023-03-17T08:27:17.454Z,40.87
2023-03-17T08:29:46.078Z,41.62
2023-03-17T08:32:15.148Z,45.33
2023-03-17T08:34:44.529Z,40.06
2023-03-17T08:37:12.949Z,38.53
2023-03-17T08:39:42.635Z,39.74
2023-03-17T08:42:10.996Z,42.74
2023-03-17T08:44:39.312Z,46.41
2023-03-17T08:47:07.798Z,41.63
2023-03-17T08:49:36.711Z,45.92
2023-03-17T08:52:05.099Z,45.87
2023-03-17T08:54:33.461Z,53.24
2023-03-17T08:57:04.191Z,42.97
2023-03-17T08:59:32.951Z,44.55
2023-03-17T09:02:01.227Z,47.78
2023-03-17T09:04:29.581Z,42.77
2023-03-17T09:07:05.774Z,44.52
2023-03-17T09:09:35.770Z,42.16
2023-03-17T09:12:07.098Z,41.36
2023-03-17T09:14:43.512Z,40.98
2023-03-17T09:17:14.068Z,41.23
2023-03-17T09:19:43.577Z,39.59
2023-03-17T09:22:14.842Z,39.85
2023-03-17T09:24:43.429Z,38.66
2023-03-17T09:27:13.734Z,43.93
2023-03-17T09:29:43.390Z,41.90
2023-03-17T09:32:11.699Z,41.66
2023-03-17T09:34:40.034Z,42.16
2023-03-17T09:37:09.929Z,42.11
2023-03-17T09:39:38.287Z,40.56
2023-03-17T09:42:33.479Z,46.36
2023-03-17T09:45:17.876Z,41.52
2023-03-17T09:47:58.509Z,41.31
2023-03-17T09:50:30.468Z,37.57
2023-03-17T09:53:03.723Z,39.00
2023-03-17T09:55:34.077Z,39.89
2023-03-17T09:58:05.007Z,39.60
2023-03-17T10:00:34.805Z,39.53
2023-03-17T10:03:03.624Z,37.08
2023-03-17T10:05:36.206Z,36.87
2023-03-17T10:08:28.875Z,39.78
2023-03-17T10:11:03.466Z,35.20
2023-03-17T10:13:48.606Z,36.28
2023-03-17T10:16:20.890Z,33.71
2023-03-17T10:18:55.622Z,43.62
2023-03-17T10:21:28.250Z,34.47
2023-03-17T10:23:57.666Z,35.55
2023-03-17T10:26:31.431Z,33.37
2023-03-17T10:29:04.238Z,33.33
2023-03-17T10:31:35.702Z,33.61
2023-03-17T10:34:14.728Z,33.29
2023-03-17T10:36:45.982Z,34.18
2023-03-17T10:39:16.362Z,33.10
2023-03-17T10:41:54.144Z,31.96
2023-03-17T10:44:34.902Z,33.00
2023-03-17T10:47:03.831Z,31.38
2023-03-17T10:49:37.200Z,33.17
2023-03-17T10:52:09.250Z,31.99
2023-03-17T10:54:39.395Z,30.97
2023-03-17T10:57:10.790Z,29.16
2023-03-17T10:59:44.901Z,31.24
2023-03-17T11:02:22.144Z,31.02
2023-03-17T11:04:50.573Z,33.49
2023-03-17T11:07:21.437Z,32.66
2023-03-17T11:09:51.751Z,37.07
2023-03-17T11:12:27.170Z,32.66
2023-03-17T11:15:03.500Z,33.49
2023-03-17T11:17:41.564Z,33.04
2023-03-17T11:20:26.546Z,33.27
2023-03-17T11:23:02.329Z,35.20
2023-03-17T11:25:34.555Z,33.69
2023-03-17T11:28:16.980Z,33.94
2023-03-17T11:30:53.847Z,34.39
2023-03-17T11:33:35.513Z,34.80
2023-03-17T11:36:12.115Z,37.56
2023-03-17T11:38:51.024Z,36.57
2023-03-17T11:41:42.579Z,37.19
2023-03-17T11:44:30.528Z,36.87
2023-03-17T11:47:09.224Z,38.84
2023-03-17T11:49:38.981Z,38.00
2023-03-17T11:52:22.146Z,39.01
2023-03-17T11:55:00.199Z,41.83
2023-03-17T11:57:35.087Z,38.04
2023-03-17T12:00:07.257Z,44.88
2023-03-17T12:02:42.855Z,37.24
2023-03-17T12:05:15.498Z,38.42
2023-03-17T12:07:48.248Z,38.93
2023-03-17T12:10:23.827Z,41.52
2023-03-17T12:12:57.330Z,38.60
2023-03-17T12:15:31.662Z,38.47
2023-03-17T12:18:07.056Z,38.68
2023-03-17T12:20:46.879Z,38.97
2023-03-17T12:23:29.452Z,38.43
2023-03-17T12:26:03.964Z,39.28
2023-03-17T12:28:38.081Z,37.94
2023-03-17T12:31:09.175Z,37.26
2023-03-17T12:33:45.198Z,35.92
2023-03-17T12:36:17.235Z,34.85
2023-03-17T12:38:50.082Z,34.83
2023-03-17T12:41:35.193Z,35.07
2023-03-17T12:44:09.260Z,36.06
2023-03-17T12:47:13.904Z,34.80
2023-03-17T12:50:11.143Z,39.52
2023-03-17T12:53:07.420Z,36.23
2023-03-17T12:55:37.158Z,36.21
2023-03-17T12:58:08.239Z,47.23
2023-03-17T13:00:50.836Z,36.51
2023-03-17T13:03:24.741Z,43.36
2023-03-17T13:06:00.151Z,37.67
2023-03-17T13:08:32.135Z,37.25
2023-03-17T13:11:18.678Z,36.34
2023-03-17T13:13:59.229Z,37.09
2023-03-17T13:16:32.319Z,35.35
2023-03-17T13:19:17.696Z,37.08
2023-03-17T13:21:52.415Z,36.61
2023-03-17T13:24:36.109Z,38.70
2023-03-17T13:27:05.676Z,47.04
2023-03-17T13:29:48.790Z,38.74
2023-03-17T13:32:35.666Z,39.71
2023-03-17T13:35:41.153Z,47.01
2023-03-17T13:38:28.081Z,39.24
2023-03-17T13:41:16.948Z,39.55
2023-03-17T13:43:57.005Z,43.12
2023-03-17T13:46:35.219Z,39.76
2023-03-17T13:49:16.745Z,43.84
2023-03-17T13:51:59.092Z,40.97
2023-03-17T13:54:35.535Z,40.47
2023-03-17T13:57:24.340Z,40.31
2023-03-17T14:00:14.952Z,40.39
2023-03-17T14:02:49.046Z,40.94
2023-03-17T14:05:25.713Z,39.99
2023-03-17T14:07:58.358Z,39.82
2023-03-17T14:10:31.091Z,41.58
2023-03-17T14:13:04.541Z,39.44
2023-03-17T14:15:42.180Z,39.72
2023-03-17T14:18:16.791Z,39.67
2023-03-17T14:20:54.539Z,39.60
2023-03-17T14:23:24.068Z,41.26
2023-03-17T14:25:57.114Z,42.67
2023-03-17T14:28:29.034Z,41.69
2023-03-17T14:31:00.649Z,41.49
2023-03-17T14:33:31.081Z,42.14
2023-03-17T14:36:01.290Z,42.10
2023-03-17T14:38:32.174Z,41.14
2023-03-17T14:41:06.797Z,42.13
2023-03-17T14:43:36.947Z,41.08
2023-03-17T14:46:06.817Z,41.46
2023-03-17T14:48:37.194Z,41.15
2023-03-17T14:51:09.779Z,41.15
2023-03-17T14:53:43.271Z,42.14
2023-03-17T14:56:13.672Z,42.07
2023-03-17T14:58:44.238Z,41.14
2023-03-17T15:01:17.661Z,40.54
2023-03-17T15:03:56.580Z,40.71
2023-03-17T15:06:27.258Z,39.81
2023-03-17T15:08:56.022Z,40.35
2023-03-17T15:11:28.412Z,39.43
2023-03-17T15:14:05.074Z,39.86
2023-03-17T15:16:36.768Z,40.45
2023-03-17T15:19:08.712Z,40.76
2023-03-17T15:21:41.293Z,41.55
2023-03-17T15:24:29.726Z,43.01
2023-03-17T15:27:04.919Z,52.48
2023-03-17T15:29:33.281Z,43.92
2023-03-17T15:32:13.844Z,41.90
2023-03-17T15:34:42.682Z,43.42
2023-03-17T15:37:19.429Z,42.21
2023-03-17T15:39:48.204Z,42.32
2023-03-17T15:42:21.939Z,41.92
2023-03-17T15:44:50.297Z,41.97
2023-03-17T15:47:21.042Z,43.10
2023-03-17T15:49:50.860Z,41.82
2023-03-17T15:52:23.119Z,43.01
2023-03-17T15:54:51.593Z,43.32
2023-03-17T15:57:21.400Z,42.58
2023-03-17T15:59:49.684Z,42.85
2023-03-17T16:02:29.144Z,43.78
2023-03-17T16:04:58.498Z,43.82
2023-03-17T16:07:27.381Z,43.31
2023-03-17T16:09:55.984Z,43.75
2023-03-17T16:12:26.166Z,43.20
2023-03-17T16:14:54.440Z,42.70
2023-03-17T16:17:29.137Z,42.73
2023-03-17T16:19:58.253Z,42.16
2023-03-17T16:22:39.575Z,43.19
2023-03-17T16:25:19.972Z,42.74
2023-03-17T16:27:50.506Z,41.95
2023-03-17T16:30:21.486Z,42.40
2023-03-17T16:32:50.301Z,42.97
2023-03-17T16:35:20.646Z,43.61
2023-03-17T16:37:49.309Z,43.09
2023-03-17T16:40:20.290Z,43.11
2023-03-17T16:42:50.560Z,42.87
2023-03-17T16:45:23.459Z,42.89
2023-03-17T16:47:51.704Z,43.01
2023-03-17T16:50:21.909Z,41.70
2023-03-17T16:52:50.393Z,42.04
2023-03-17T16:55:20.694Z,43.35
2023-03-17T16:57:53.551Z,43.33
2023-03-17T17:00:25.000Z,41.64
2023-03-17T17:02:54.089Z,53.92
2023-03-17T17:05:24.855Z,45.85
2023-03-17T17:07:56.160Z,43.99
2023-03-17T17:10:26.918Z,40.88
2023-03-17T17:12:56.860Z,41.29
2023-03-17T17:15:25.453Z,48.16
2023-03-17T17:17:59.178Z,40.58
2023-03-17T17:20:30.936Z,40.73
2023-03-17T17:23:00.495Z,40.38
2023-03-17T17:25:29.558Z,40.68
2023-03-17T17:27:59.922Z,40.64
2023-03-17T17:30:31.514Z,40.41
2023-03-17T17:33:01.582Z,40.79
2023-03-17T17:35:33.156Z,40.34
2023-03-17T17:38:02.738Z,41.07
2023-03-17T17:40:31.656Z,41.50
2023-03-17T17:43:02.340Z,40.16
2023-03-17T17:45:30.799Z,40.69
2023-03-17T17:47:59.155Z,41.04
2023-03-17T17:50:29.881Z,41.32
2023-03-17T17:53:04.998Z,41.46
2023-03-17T17:55:34.678Z,41.46
2023-03-17T17:58:04.756Z,40.47
2023-03-17T18:00:33.709Z,41.61
2023-03-17T18:03:02.570Z,40.76
2023-03-17T18:05:32.331Z,42.05
2023-03-17T18:08:02.526Z,42.76
2023-03-17T18:10:32.098Z,43.09
2023-03-17T18:15:48.332Z,41.26
2023-03-17T18:18:16.720Z,42.57
2023-03-17T18:20:45.083Z,41.49
2023-03-17T18:23:13.465Z,41.51
2023-03-17T18:25:41.793Z,42.12
2023-03-17T18:28:10.098Z,41.55
2023-03-17T18:30:38.837Z,41.73
2023-03-17T18:33:12.105Z,42.22
2023-03-17T18:35:41.325Z,41.57
2023-03-17T18:38:09.661Z,41.25
2023-03-17T18:40:38.053Z,43.27
2023-03-17T18:43:06.721Z,42.24
2023-03-17T18:45:35.104Z,41.98
2023-03-17T18:48:03.532Z,42.60
2023-03-17T18:50:33.596Z,43.39
2023-03-17T18:53:02.667Z,43.16
2023-03-17T18:55:34.739Z,42.85
2023-03-17T18:58:03.267Z,42.33
2023-03-17T19:00:31.885Z,43.03
2023-03-17T19:03:00.374Z,42.42
2023-03-17T19:05:28.836Z,43.66
2023-03-17T19:07:58.589Z,42.90
2023-03-17T19:10:26.875Z,43.33
2023-03-17T19:12:55.550Z,42.36
2023-03-17T19:15:23.903Z,43.24
2023-03-17T19:17:52.286Z,44.09
2023-03-17T19:20:20.839Z,44.01
2023-03-17T19:22:49.220Z,44.58
2023-03-17T19:25:19.117Z,44.99
2023-03-17T19:27:47.473Z,44.51
2023-03-17T19:30:16.306Z,43.95
2023-03-17T19:32:45.013Z,43.90
2023-03-17T19:35:13.329Z,44.08
2023-03-17T19:37:41.643Z,45.89
2023-03-17T19:40:11.425Z,44.52
2023-03-17T19:42:41.589Z,44.17
2023-03-17T19:45:10.886Z,45.50
2023-03-17T19:47:39.428Z,44.94
2023-03-17T19:50:09.040Z,45.52
2023-03-17T19:52:37.374Z,45.88
2023-03-17T19:55:08.306Z,45.83
2023-03-17T19:57:36.852Z,46.37
2023-03-17T20:00:09.044Z,46.47
2023-03-17T20:02:37.512Z,46.48
2023-03-17T20:05:06.760Z,45.68
2023-03-17T20:07:35.628Z,46.41
2023-03-17T20:10:04.161Z,46.04
2023-03-17T20:12:33.005Z,46.48
2023-03-17T20:15:01.783Z,45.94
2023-03-17T20:17:31.536Z,46.84
2023-03-17T20:20:00.451Z,46.79
2023-03-17T20:22:29.018Z,46.33
2023-03-17T20:24:57.364Z,46.11
2023-03-17T20:27:25.652Z,47.35
2023-03-17T20:29:53.964Z,47.54
2023-03-17T20:32:22.305Z,47.79
2023-03-17T20:34:52.067Z,48.42
2023-03-17T20:37:20.407Z,47.30
2023-03-17T20:39:48.742Z,47.60
2023-03-17T20:42:20.160Z,47.70
2023-03-17T20:44:52.953Z,46.46
2023-03-17T20:47:21.637Z,46.65
2023-03-17T20:49:51.291Z,46.98
2023-03-17T20:52:20.004Z,47.41
2023-03-17T20:54:48.751Z,47.89
2023-03-17T20:57:17.223Z,47.58
2023-03-17T20:59:45.723Z,47.83
2023-03-17T21:02:18.444Z,48.14
2023-03-17T21:04:49.059Z,47.62
2023-03-17T21:07:20.121Z,47.60
2023-03-17T21:09:48.959Z,47.88
2023-03-17T21:12:19.670Z,47.99
2023-03-17T21:14:49.306Z,48.87
2023-03-17T21:17:18.604Z,48.69
2023-03-17T21:19:47.538Z,48.30
2023-03-17T21:22:16.168Z,49.10
2023-03-17T21:24:45.938Z,48.57
2023-03-17T21:27:14.319Z,48.19
2023-03-17T21:29:42.747Z,49.46
2023-03-17T21:32:11.202Z,49.27
2023-03-17T21:34:39.399Z,48.47
2023-03-17T21:37:08.066Z,48.08
2023-03-17T21:39:36.923Z,49.46
2023-03-17T21:42:09.108Z,49.53
2023-03-17T21:44:37.425Z,49.30
2023-03-17T21:47:06.261Z,48.84
2023-03-17T21:49:34.579Z,49.52
2023-03-17T21:52:02.776Z,49.05
2023-03-17T21:54:31.708Z,49.24
2023-03-17T21:56:59.969Z,48.74
2023-03-17T21:59:31.954Z,49.78
2023-03-17T22:02:00.276Z,49.26
2023-03-17T22:04:30.054Z,49.53
2023-03-17T22:06:59.042Z,49.59
2023-03-17T22:09:27.883Z,50.02
2023-03-17T22:11:56.194Z,49.71
2023-03-17T22:14:24.503Z,49.39
2023-03-17T22:16:54.490Z,49.49
2023-03-17T22:19:22.771Z,49.90
2023-03-17T22:21:51.821Z,49.36
2023-03-17T22:24:20.614Z,49.26
2023-03-17T22:26:49.758Z,49.21
2023-03-17T22:29:18.118Z,49.57
2023-03-17T22:31:47.076Z,49.41
2023-03-17T22:34:17.494Z,49.80
2023-03-17T22:36:45.680Z,49.55
2023-03-17T22:39:14.370Z,50.01
2023-03-17T22:41:43.027Z,50.54
2023-03-17T22:44:12.397Z,49.63
2023-03-17T22:46:41.695Z,49.76
2023-03-17T22:49:10.203Z,49.52
2023-03-17T22:51:41.463Z,48.66
2023-03-17T22:54:11.425Z,49.22
2023-03-17T22:56:40.033Z,48.82
2023-03-17T22:59:08.378Z,49.53
2023-03-17T23:01:36.776Z,49.97
2023-03-17T23:04:05.124Z,50.01
2023-03-17T23:06:33.550Z,50.29
2023-03-17T23:09:04.935Z,49.50
2023-03-17T23:11:33.555Z,49.11
2023-03-17T23:14:02.052Z,50.40
2023-03-17T23:16:30.544Z,50.66
2023-03-17T23:18:59.033Z,50.43
2023-03-17T23:21:31.032Z,49.92
2023-03-17T23:23:59.425Z,49.45
2023-03-17T23:26:30.194Z,50.02
2023-03-17T23:28:58.496Z,50.32
2023-03-17T23:31:27.559Z,50.48
2023-03-17T23:33:55.862Z,49.67
2023-03-17T23:36:24.146Z,50.36
2023-03-17T23:38:52.682Z,49.48
2023-03-17T23:41:21.365Z,50.12
2023-03-17T23:43:51.212Z,49.62
2023-03-17T23:46:20.741Z,49.69
2023-03-17T23:48:50.180Z,50.14
2023-03-17T23:51:18.453Z,50.21
2023-03-17T23:53:48.106Z,51.14
2023-03-17T23:56:16.587Z,50.60
2023-03-17T23:58:44.868Z,50.66
